Airfield :
LOGIN :

Register | Disclaimer

   EN    FR    IT 

 










Legend :    VFR   Marginal VFR   IFR   Intensive IFR   Very Intensive IFR
Visi :
Ceiling :
>= 8 km
>= 3000ft
5 to 8 km
1000 to 3000 ft
1500m to 5 km
500 to 1000 ft
800 to 1500m
200 to 500 ft
< 800m
< 200 ft
Symbols :   Thunderstorms  Fog  Heavy snow  Heavy precipitations  Wind > 20 kt
SIGMETs :     Misc.  Thunderstorms  Icing  Turbulence  Mountain Waves  Volcanic Ashes






- Airport Elevation : 146 ft
- IATA code : RKE


EKRK - Roskilde Tune

CURRENT METAR :
  • 242220Z AUTO 27012KT 2700 -RA BR OVC009/// 10/09 Q1019

EXPIRED METARs :
  • 242150Z AUTO 27011KT 6000 -RA OVC013/// 10/08 Q1019
  • 242120Z AUTO 27011KT 9999 OVC015/// 11/08 Q1019
  • 242050Z AUTO 28009KT 9999 SCT017/// OVC032/// 11/08 Q1019
  • 242020Z AUTO 28012KT 9999 OVC019/// 11/07 Q1019
  • 241950Z AUTO 28011KT 9999 OVC020/// 11/08 Q1019

TAF TAF EKRK
Valid from the 24 at 21:00 until the 25 at 06:00 UTC


242025Z 2421/2506 28010KT 9999 BKN020
TEMPO 2422/2506 BKN012



MET'MAP, your aeronautical weather chart ! - Copyright ORBIFLY December 2007 - Disclaimer

ORBIFLY MET'MAP TEAM :

Programming & Development : Alexandra Zaïnal
Concept & original design : Baudouin d'Aumeries
Assistance for programming : Marc-Olivier Méhu
Technical & hardware support : Manuel Goepfert

Contact : metmap@orbifly.com




SOURCES & CREDITS :

   NOAA